createdAt,value
2023-02-09T00:02:08.998Z,30.25
2023-02-09T00:04:36.444Z,29.60
2023-02-09T00:07:03.693Z,26.58
2023-02-09T00:09:31.556Z,29.13
2023-02-09T00:12:17.652Z,27.30
2023-02-09T00:14:44.900Z,27.98
2023-02-09T00:17:12.154Z,31.70
2023-02-09T00:19:39.425Z,28.42
2023-02-09T00:22:06.646Z,25.65
2023-02-09T00:24:33.806Z,27.92
2023-02-09T00:27:01.100Z,32.28
2023-02-09T00:29:29.543Z,31.15
2023-02-09T00:31:56.764Z,31.55
2023-02-09T00:34:23.931Z,30.30
2023-02-09T00:36:51.180Z,40.00
2023-02-09T00:39:18.380Z,36.67
2023-02-09T00:42:04.189Z,35.55
2023-02-09T00:44:31.351Z,39.97
2023-02-09T00:46:58.584Z,34.08
2023-02-09T00:49:25.801Z,32.42
2023-02-09T00:51:52.952Z,36.00
2023-02-09T00:54:20.484Z,40.80
2023-02-09T00:56:47.709Z,37.55
2023-02-09T00:59:14.895Z,36.40
2023-02-09T01:01:42.301Z,39.20
2023-02-09T01:04:09.601Z,36.58
2023-02-09T01:06:36.852Z,33.08
2023-02-09T01:09:04.577Z,42.20
2023-02-09T01:11:31.819Z,35.47
2023-02-09T01:14:00.002Z,38.22
2023-02-09T01:16:31.869Z,41.90
2023-02-09T01:19:00.704Z,36.13
2023-02-09T01:21:28.181Z,36.75
2023-02-09T01:23:55.443Z,42.33
2023-02-09T01:26:22.649Z,39.10
2023-02-09T01:28:53.593Z,37.53
2023-02-09T01:31:25.467Z,40.83
2023-02-09T01:33:53.667Z,41.05
2023-02-09T01:36:21.341Z,34.00
2023-02-09T01:38:48.537Z,34.97
2023-02-09T01:41:15.825Z,34.33
2023-02-09T01:43:49.184Z,39.58
2023-02-09T01:46:16.405Z,35.83
2023-02-09T01:48:43.575Z,40.55
2023-02-09T01:51:11.591Z,38.95
2023-02-09T01:53:39.123Z,41.25
2023-02-09T01:56:11.705Z,37.22
2023-02-09T02:01:07.339Z,33.83
2023-02-09T02:03:34.558Z,40.25
2023-02-09T02:06:06.163Z,43.50
2023-02-09T02:08:33.467Z,39.97
2023-02-09T02:11:00.761Z,34.35
2023-02-09T02:13:27.950Z,39.85
2023-02-09T02:16:01.224Z,36.13
2023-02-09T02:18:57.749Z,38.63
2023-02-09T02:21:36.241Z,31.02
2023-02-09T02:24:03.442Z,31.85
2023-02-09T02:26:45.868Z,36.95
2023-02-09T02:29:31.607Z,34.80
2023-02-09T02:31:58.829Z,26.95
2023-02-09T02:34:35.874Z,37.65
2023-02-09T02:37:12.051Z,34.28
2023-02-09T02:39:39.229Z,30.52
2023-02-09T02:42:42.800Z,38.63
2023-02-09T02:45:12.784Z,37.67
2023-02-09T02:47:41.246Z,39.00
2023-02-09T02:50:19.716Z,35.53
2023-02-09T02:52:48.543Z,38.92
2023-02-09T02:55:17.329Z,37.55
2023-02-09T02:57:46.382Z,46.97
2023-02-09T03:00:19.619Z,34.10
2023-02-09T03:02:50.859Z,41.83
2023-02-09T03:05:18.671Z,37.15
2023-02-09T03:07:45.828Z,38.15
2023-02-09T03:10:34.500Z,43.58
2023-02-09T03:13:20.580Z,41.00
2023-02-09T03:15:58.394Z,35.60
2023-02-09T03:18:28.765Z,39.40
2023-02-09T03:21:03.342Z,36.40
2023-02-09T03:23:30.534Z,35.70
2023-02-09T03:25:58.987Z,35.75
2023-02-09T03:28:31.294Z,40.42
2023-02-09T03:30:59.003Z,36.90
2023-02-09T03:33:29.188Z,34.13
2023-02-09T03:35:57.506Z,38.88
2023-02-09T03:38:25.692Z,38.53
2023-02-09T03:40:52.908Z,35.78
2023-02-09T03:43:20.177Z,36.45
2023-02-09T03:45:47.337Z,40.50
2023-02-09T03:48:14.601Z,34.55
2023-02-09T03:50:41.806Z,37.13
2023-02-09T03:53:08.950Z,35.67
2023-02-09T03:55:37.160Z,27.30
2023-02-09T03:58:04.384Z,37.47
2023-02-09T04:00:31.608Z,35.00
2023-02-09T04:02:59.368Z,29.02
2023-02-09T04:05:26.569Z,28.50
2023-02-09T04:07:53.763Z,34.55
2023-02-09T04:10:20.917Z,31.05
2023-02-09T04:12:48.309Z,32.88
2023-02-09T04:15:15.566Z,30.63
2023-02-09T04:17:42.778Z,30.42
2023-02-09T04:20:10.122Z,32.40
2023-02-09T04:22:37.333Z,28.27
2023-02-09T04:25:04.633Z,29.85
2023-02-09T04:27:31.788Z,30.15
2023-02-09T04:29:58.993Z,27.08
2023-02-09T04:32:26.153Z,34.85
2023-02-09T04:34:53.299Z,33.53
2023-02-09T04:37:20.457Z,32.30
2023-02-09T04:39:47.841Z,33.08
2023-02-09T04:42:14.974Z,33.67
2023-02-09T04:44:42.216Z,30.55
2023-02-09T04:47:09.391Z,28.33
2023-02-09T04:49:36.715Z,28.73
2023-02-09T04:52:04.057Z,30.27
2023-02-09T04:54:31.369Z,30.40
2023-02-09T04:57:18.995Z,30.63
2023-02-09T04:59:46.184Z,31.75
2023-02-09T05:02:13.444Z,26.90
2023-02-09T05:04:40.670Z,30.40
2023-02-09T05:07:07.949Z,35.20
2023-02-09T05:09:35.078Z,32.95
2023-02-09T05:12:02.302Z,32.05
2023-02-09T05:14:29.584Z,29.42
2023-02-09T05:16:56.789Z,27.75
2023-02-09T05:19:24.517Z,34.63
2023-02-09T05:21:51.683Z,28.20
2023-02-09T05:24:19.027Z,37.55
2023-02-09T05:26:46.258Z,29.98
2023-02-09T05:29:13.589Z,33.72
2023-02-09T05:31:43.005Z,29.95
2023-02-09T05:34:10.388Z,30.38
2023-02-09T05:36:37.593Z,28.55
2023-02-09T05:39:04.758Z,29.30
2023-02-09T05:41:50.758Z,30.70
2023-02-09T05:44:18.096Z,26.90
2023-02-09T05:46:45.283Z,33.67
2023-02-09T05:49:12.516Z,29.38
2023-02-09T05:51:39.711Z,24.92
2023-02-09T05:54:07.075Z,26.25
2023-02-09T05:56:35.598Z,26.33
2023-02-09T05:59:04.684Z,30.02
2023-02-09T06:01:31.988Z,26.17
2023-02-09T06:03:59.201Z,30.80
2023-02-09T06:06:26.393Z,30.23
2023-02-09T06:08:54.053Z,29.10
2023-02-09T06:11:21.336Z,29.67
2023-02-09T06:13:48.626Z,22.75
2023-02-09T06:16:15.843Z,27.75
2023-02-09T06:18:43.024Z,32.88
2023-02-09T06:21:12.026Z,27.52
2023-02-09T06:23:39.908Z,30.85
2023-02-09T06:26:07.960Z,26.33
2023-02-09T06:28:35.291Z,32.33
2023-02-09T06:31:02.664Z,23.27
2023-02-09T06:33:30.040Z,29.58
2023-02-09T06:35:57.318Z,31.05
2023-02-09T06:38:24.672Z,36.25
2023-02-09T06:40:52.430Z,30.23
2023-02-09T06:43:19.660Z,29.02
2023-02-09T06:45:46.905Z,32.10
2023-02-09T06:48:14.181Z,28.00
2023-02-09T06:50:41.596Z,26.70
2023-02-09T06:53:08.980Z,29.73
2023-02-09T06:55:36.313Z,29.23
2023-02-09T06:58:03.893Z,33.45
2023-02-09T07:00:31.669Z,30.20
2023-02-09T07:02:59.463Z,26.20
2023-02-09T07:05:26.788Z,28.90
2023-02-09T07:07:53.950Z,26.77
2023-02-09T07:10:21.154Z,27.95
2023-02-09T07:12:48.384Z,34.50
2023-02-09T07:15:15.902Z,27.63
2023-02-09T07:17:43.084Z,27.80
2023-02-09T07:20:10.467Z,27.35
2023-02-09T07:22:37.717Z,23.17
2023-02-09T07:25:05.079Z,25.50
2023-02-09T07:27:32.329Z,20.58
2023-02-09T07:30:01.012Z,26.45
2023-02-09T07:32:28.576Z,30.25
2023-02-09T07:34:55.745Z,21.17
2023-02-09T07:37:23.010Z,25.23
2023-02-09T07:39:50.299Z,24.23
2023-02-09T07:42:17.742Z,26.08
2023-02-09T07:44:45.016Z,23.58
2023-02-09T07:47:12.146Z,22.95
2023-02-09T07:49:39.320Z,18.90
2023-02-09T07:52:06.542Z,21.27
2023-02-09T07:54:33.789Z,20.02
2023-02-09T07:57:00.991Z,24.23
2023-02-09T07:59:28.199Z,22.15
2023-02-09T08:01:55.523Z,20.80
2023-02-09T08:04:23.983Z,21.75
2023-02-09T08:06:53.191Z,22.02
2023-02-09T08:09:20.434Z,26.33
2023-02-09T08:11:53.305Z,23.23
2023-02-09T08:14:22.897Z,18.83
2023-02-09T08:16:52.027Z,22.23
2023-02-09T08:19:22.531Z,21.27
2023-02-09T08:21:50.148Z,23.48
2023-02-09T08:24:19.117Z,20.17
2023-02-09T08:26:46.457Z,16.42
2023-02-09T08:29:13.731Z,20.77
2023-02-09T08:31:40.988Z,18.77
2023-02-09T08:34:08.274Z,23.25
2023-02-09T08:36:37.680Z,20.63
2023-02-09T08:39:06.720Z,20.35
2023-02-09T08:41:34.885Z,19.25
2023-02-09T08:44:02.135Z,18.90
2023-02-09T08:46:29.514Z,22.85
2023-02-09T08:48:56.846Z,17.75
2023-02-09T08:51:24.038Z,16.25
2023-02-09T08:53:54.554Z,16.17
2023-02-09T08:56:23.039Z,18.23
2023-02-09T08:58:50.862Z,24.98
2023-02-09T09:01:18.199Z,20.13
2023-02-09T09:03:45.508Z,17.45
2023-02-09T09:06:12.746Z,19.48
2023-02-09T09:08:40.340Z,17.98
2023-02-09T09:11:12.809Z,14.88
2023-02-09T09:13:40.774Z,18.27
2023-02-09T09:16:08.434Z,14.35
2023-02-09T09:18:35.637Z,16.65
2023-02-09T09:21:02.848Z,17.73
2023-02-09T09:23:30.078Z,26.05
2023-02-09T09:26:01.929Z,15.18
2023-02-09T09:28:29.550Z,14.52
2023-02-09T09:30:57.041Z,13.15
2023-02-09T09:33:24.277Z,15.00
2023-02-09T09:35:51.566Z,16.85
2023-02-09T09:38:18.720Z,16.98
2023-02-09T09:40:46.361Z,21.38
2023-02-09T09:43:21.608Z,14.65
2023-02-09T09:45:49.665Z,16.13
2023-02-09T09:48:22.908Z,12.27
2023-02-09T09:50:52.047Z,17.00
2023-02-09T09:53:25.950Z,16.80
2023-02-09T09:55:55.253Z,11.23
2023-02-09T09:58:22.941Z,15.90
2023-02-09T10:00:50.914Z,15.88
2023-02-09T10:03:19.271Z,15.30
2023-02-09T10:05:48.553Z,14.90
2023-02-09T10:08:17.886Z,18.85
2023-02-09T10:10:48.006Z,16.48
2023-02-09T10:13:21.436Z,17.13
2023-02-09T10:15:49.737Z,17.08
2023-02-09T10:18:17.678Z,14.20
2023-02-09T10:20:44.886Z,14.27
2023-02-09T10:23:16.192Z,13.20
2023-02-09T10:25:43.469Z,16.95
2023-02-09T10:28:19.193Z,13.38
2023-02-09T10:30:47.503Z,13.70
2023-02-09T10:33:15.791Z,10.20
2023-02-09T10:35:45.727Z,13.30
2023-02-09T10:38:16.901Z,14.60
2023-02-09T10:40:44.677Z,14.68
2023-02-09T10:43:32.244Z,12.93
2023-02-09T10:46:01.003Z,19.17
2023-02-09T10:48:28.803Z,13.35
2023-02-09T10:50:59.792Z,21.10
2023-02-09T10:53:28.934Z,15.05
2023-02-09T10:56:00.525Z,13.35
2023-02-09T10:58:29.676Z,11.48
2023-02-09T11:00:56.806Z,13.25
2023-02-09T11:03:27.854Z,14.32
2023-02-09T11:05:58.835Z,14.73
2023-02-09T11:08:39.795Z,11.77
2023-02-09T11:11:17.426Z,14.05
2023-02-09T11:13:44.645Z,14.20
2023-02-09T11:16:30.628Z,14.55
2023-02-09T11:19:11.414Z,10.77
2023-02-09T11:21:48.364Z,11.90
2023-02-09T11:24:21.662Z,8.40
2023-02-09T11:26:51.953Z,9.10
2023-02-09T11:29:34.737Z,11.02
2023-02-09T11:34:35.252Z,14.93
2023-02-09T11:37:06.660Z,10.48
2023-02-09T11:39:52.534Z,9.98
2023-02-09T11:42:43.913Z,14.68
2023-02-09T11:45:20.521Z,13.38
2023-02-09T11:47:54.938Z,8.65
2023-02-09T11:50:29.059Z,9.00
2023-02-09T11:52:57.573Z,13.85
2023-02-09T11:55:51.197Z,8.02
2023-02-09T11:58:27.674Z,16.33
2023-02-09T12:01:13.371Z,12.38
2023-02-09T12:03:43.598Z,14.85
2023-02-09T12:06:11.857Z,13.20
2023-02-09T12:08:49.962Z,14.70
2023-02-09T12:11:32.231Z,13.88
2023-02-09T12:14:04.919Z,10.90
2023-02-09T12:18:59.459Z,7.13
2023-02-09T12:21:34.095Z,12.45
2023-02-09T12:24:02.272Z,12.02
2023-02-09T12:26:42.079Z,15.48
2023-02-09T12:29:27.991Z,10.93
2023-02-09T12:32:04.356Z,17.00
2023-02-09T12:34:40.681Z,14.57
2023-02-09T12:37:07.814Z,9.00
2023-02-09T12:39:35.022Z,13.07
2023-02-09T12:42:02.181Z,13.80
2023-02-09T12:44:29.407Z,14.55
2023-02-09T12:46:58.095Z,15.88
2023-02-09T12:49:28.015Z,21.83
2023-02-09T12:52:04.056Z,20.67
2023-02-09T12:54:43.539Z,12.57
2023-02-09T12:57:16.771Z,13.63
2023-02-09T12:59:52.999Z,11.40
2023-02-09T13:02:38.697Z,15.27
2023-02-09T13:05:19.594Z,16.65
2023-02-09T13:08:09.819Z,12.95
2023-02-09T13:10:43.348Z,13.45
2023-02-09T13:13:13.537Z,12.02
2023-02-09T13:15:59.500Z,11.38
2023-02-09T13:18:46.072Z,13.32
2023-02-09T13:21:16.091Z,12.95
2023-02-09T13:23:54.349Z,6.63
2023-02-09T13:26:26.729Z,10.13
2023-02-09T13:29:20.575Z,11.95
2023-02-09T13:32:03.855Z,10.30
2023-02-09T13:34:33.839Z,9.60
2023-02-09T13:37:00.991Z,10.50
2023-02-09T13:39:38.181Z,9.75
2023-02-09T13:42:21.768Z,9.63
2023-02-09T13:44:53.371Z,7.97
2023-02-09T13:47:21.097Z,13.57
2023-02-09T13:49:57.377Z,16.10
2023-02-09T13:52:26.727Z,10.98
2023-02-09T13:54:54.734Z,13.63
2023-02-09T13:57:38.869Z,16.33
2023-02-09T14:00:11.081Z,16.00
2023-02-09T14:02:38.626Z,16.27
2023-02-09T14:05:08.369Z,13.55
2023-02-09T14:07:37.337Z,14.93
2023-02-09T14:10:12.162Z,10.30
2023-02-09T14:12:51.819Z,11.45
2023-02-09T14:15:39.493Z,11.23
2023-02-09T14:18:22.400Z,13.02
2023-02-09T14:23:16.793Z,14.45
2023-02-09T14:25:44.367Z,18.70
2023-02-09T14:28:16.007Z,16.65
2023-02-09T14:30:50.297Z,21.98
2023-02-09T14:33:24.731Z,17.05
2023-02-09T14:35:56.664Z,17.90
2023-02-09T14:38:35.994Z,20.40
2023-02-09T14:41:38.650Z,16.98
2023-02-09T14:44:08.829Z,23.73
2023-02-09T14:46:56.301Z,16.33
2023-02-09T14:49:23.953Z,19.85
2023-02-09T14:51:56.580Z,22.85
2023-02-09T14:56:51.886Z,23.02
2023-02-09T14:59:20.265Z,20.25
2023-02-09T15:01:48.582Z,19.33
2023-02-09T15:04:15.784Z,15.18
2023-02-09T15:06:44.662Z,16.55
2023-02-09T15:09:19.437Z,95.88
2023-02-09T15:12:05.059Z,49.90
2023-02-09T15:14:38.677Z,31.65
2023-02-09T15:17:19.908Z,27.42
2023-02-09T15:19:47.399Z,18.00
2023-02-09T15:22:16.153Z,18.95
2023-02-09T15:24:44.204Z,20.67
2023-02-09T15:27:31.636Z,21.02
2023-02-09T15:30:01.054Z,20.45
2023-02-09T15:32:29.748Z,14.70
2023-02-09T15:34:56.997Z,18.98
2023-02-09T15:37:27.265Z,17.38
2023-02-09T15:39:57.098Z,20.30
2023-02-09T15:42:56.893Z,19.83
2023-02-09T15:45:44.417Z,25.23
2023-02-09T15:48:12.112Z,22.63
2023-02-09T15:50:41.424Z,22.70
2023-02-09T15:53:09.626Z,18.77
2023-02-09T15:55:37.508Z,17.90
2023-02-09T15:58:05.069Z,28.13
2023-02-09T16:00:32.304Z,62.80
2023-02-09T16:03:01.399Z,53.72
2023-02-09T16:05:30.296Z,27.25
2023-02-09T16:07:58.823Z,27.73
2023-02-09T16:10:27.132Z,37.42
2023-02-09T16:12:54.405Z,41.15
2023-02-09T16:15:24.282Z,43.17
2023-02-09T16:17:52.018Z,32.10
2023-02-09T16:20:19.865Z,61.08
2023-02-09T16:22:48.475Z,59.55
2023-02-09T16:25:20.588Z,33.10
2023-02-09T16:27:48.006Z,25.27
2023-02-09T16:30:16.225Z,15.32
2023-02-09T16:32:43.566Z,23.25
2023-02-09T16:35:16.979Z,30.63
2023-02-09T16:37:46.439Z,33.65
2023-02-09T16:40:24.737Z,49.53
2023-02-09T16:42:52.351Z,26.65
2023-02-09T16:45:19.689Z,23.05
2023-02-09T16:47:50.303Z,24.75
2023-02-09T16:50:34.397Z,39.78
2023-02-09T16:53:03.217Z,28.95
2023-02-09T16:55:34.918Z,17.67
2023-02-09T16:58:04.001Z,30.10
2023-02-09T17:00:35.946Z,28.55
2023-02-09T17:03:05.242Z,25.92
2023-02-09T17:05:34.911Z,28.98
2023-02-09T17:08:05.323Z,29.98
2023-02-09T17:10:34.642Z,24.30
2023-02-09T17:13:02.064Z,26.02
2023-02-09T17:15:31.992Z,29.05
2023-02-09T17:18:05.372Z,19.60
2023-02-09T17:20:37.391Z,23.08
2023-02-09T17:23:04.967Z,21.80
2023-02-09T17:25:32.246Z,27.20
2023-02-09T17:27:59.561Z,29.40
2023-02-09T17:30:26.784Z,18.65
2023-02-09T17:32:59.781Z,28.63
2023-02-09T17:36:10.221Z,20.85
2023-02-09T17:38:21.750Z,29.08
2023-02-09T17:40:49.126Z,28.92
2023-02-09T17:43:18.022Z,28.88
2023-02-09T17:45:49.348Z,24.65
2023-02-09T17:48:17.112Z,31.75
2023-02-09T17:50:46.955Z,34.20
2023-02-09T17:53:19.887Z,22.70
2023-02-09T17:55:48.771Z,32.63
2023-02-09T17:58:16.518Z,30.02
2023-02-09T18:00:44.633Z,26.02
2023-02-09T18:03:19.499Z,27.83
2023-02-09T18:05:51.743Z,28.75
2023-02-09T18:08:20.712Z,30.90
2023-02-09T18:10:48.206Z,33.90
2023-02-09T18:13:19.661Z,32.38
2023-02-09T18:15:48.929Z,33.20
2023-02-09T18:18:16.738Z,35.72
2023-02-09T18:20:44.934Z,36.60
2023-02-09T18:23:16.299Z,37.40
2023-02-09T18:25:43.921Z,46.80
2023-02-09T18:28:11.461Z,57.45
2023-02-09T18:30:39.623Z,57.45
2023-02-09T18:33:08.208Z,89.63
2023-02-09T18:35:37.139Z,51.42
2023-02-09T18:38:06.406Z,46.85
2023-02-09T18:40:34.042Z,69.78
2023-02-09T18:43:02.345Z,47.83
2023-02-09T18:45:33.450Z,41.05
2023-02-09T18:48:01.308Z,41.28
2023-02-09T18:50:31.367Z,33.85
2023-02-09T18:53:00.076Z,40.33
2023-02-09T18:55:29.772Z,41.40
2023-02-09T18:58:01.387Z,38.10
2023-02-09T19:00:30.750Z,50.50
2023-02-09T19:02:59.101Z,47.05
2023-02-09T19:05:28.286Z,39.60
2023-02-09T19:07:56.797Z,41.45
2023-02-09T19:10:24.880Z,42.00
2023-02-09T19:12:52.688Z,40.22
2023-02-09T19:15:23.304Z,46.83
2023-02-09T19:17:51.052Z,43.03
2023-02-09T19:20:20.214Z,40.20
2023-02-09T19:22:48.037Z,43.25
2023-02-09T19:25:18.662Z,35.28
2023-02-09T19:27:46.567Z,40.83
2023-02-09T19:30:15.904Z,40.70
2023-02-09T19:32:43.783Z,36.13
2023-02-09T19:35:11.362Z,46.35
2023-02-09T19:37:43.017Z,43.30
2023-02-09T19:40:21.281Z,49.90
2023-02-09T19:42:49.940Z,57.90
2023-02-09T19:45:17.885Z,53.90
2023-02-09T19:47:45.198Z,65.55
2023-02-09T19:50:15.700Z,85.32
2023-02-09T19:52:46.980Z,102.90
2023-02-09T19:55:16.665Z,58.65
2023-02-09T19:57:44.339Z,63.42
2023-02-09T20:00:18.174Z,60.38
2023-02-09T20:02:48.487Z,63.33
2023-02-09T20:05:17.335Z,76.80
2023-02-09T20:07:44.737Z,49.28
2023-02-09T20:10:12.994Z,48.50
2023-02-09T20:12:40.898Z,48.63
2023-02-09T20:15:08.861Z,57.08
2023-02-09T20:17:36.379Z,57.90
2023-02-09T20:20:04.473Z,63.42
2023-02-09T20:22:31.693Z,48.03
2023-02-09T20:24:58.998Z,46.45
2023-02-09T20:27:26.350Z,42.10
2023-02-09T20:29:57.202Z,52.40
2023-02-09T20:32:24.494Z,49.17
2023-02-09T20:34:52.900Z,56.22
2023-02-09T20:37:20.103Z,43.10
2023-02-09T20:39:47.479Z,49.17
2023-02-09T20:42:33.631Z,50.03
2023-02-09T20:45:19.681Z,58.50
2023-02-09T20:47:46.881Z,48.67
2023-02-09T20:50:16.669Z,47.88
2023-02-09T20:52:45.637Z,55.97
2023-02-09T20:55:13.427Z,48.17
2023-02-09T20:57:41.316Z,53.20
2023-02-09T21:00:09.552Z,51.35
2023-02-09T21:02:37.492Z,48.78
2023-02-09T21:05:06.077Z,53.28
2023-02-09T21:07:33.993Z,42.90
2023-02-09T21:10:01.145Z,53.97
2023-02-09T21:12:28.296Z,53.00
2023-02-09T21:14:56.544Z,49.58
2023-02-09T21:17:23.976Z,56.50
2023-02-09T21:19:51.144Z,48.13
2023-02-09T21:22:18.363Z,48.30
2023-02-09T21:24:45.554Z,50.65
2023-02-09T21:27:13.241Z,44.17
2023-02-09T21:29:40.439Z,53.35
2023-02-09T21:32:08.013Z,48.75
2023-02-09T21:34:35.855Z,52.13
2023-02-09T21:37:03.085Z,50.78
2023-02-09T21:39:31.481Z,54.55
2023-02-09T21:42:17.401Z,47.35
2023-02-09T21:44:44.554Z,42.80
2023-02-09T21:47:12.036Z,46.83
2023-02-09T21:49:39.277Z,43.97
2023-02-09T21:52:06.605Z,44.97
2023-02-09T21:54:34.160Z,49.63
2023-02-09T21:57:01.939Z,42.28
2023-02-09T21:59:29.118Z,47.40
2023-02-09T22:01:56.584Z,40.97
2023-02-09T22:04:24.281Z,37.38
2023-02-09T22:06:51.633Z,48.15
2023-02-09T22:09:20.343Z,41.75
2023-02-09T22:11:47.609Z,41.70
2023-02-09T22:14:14.972Z,42.42
2023-02-09T22:16:42.605Z,44.05
2023-02-09T22:19:09.821Z,42.35
2023-02-09T22:21:37.028Z,46.03
2023-02-09T22:24:04.319Z,39.97
2023-02-09T22:26:31.582Z,45.83
2023-02-09T22:28:58.734Z,45.28
2023-02-09T22:31:25.875Z,38.70
2023-02-09T22:33:54.098Z,41.60
2023-02-09T22:36:22.050Z,36.65
2023-02-09T22:38:49.228Z,25.40
2023-02-09T22:41:23.679Z,27.98
2023-02-09T22:44:02.905Z,34.53
2023-02-09T22:46:32.322Z,29.48
2023-02-09T22:49:00.846Z,26.05
2023-02-09T22:51:28.954Z,26.25
2023-02-09T22:53:56.786Z,30.40
2023-02-09T22:56:24.034Z,23.92
2023-02-09T22:58:53.271Z,26.55
2023-02-09T23:01:20.503Z,33.80
2023-02-09T23:03:47.861Z,28.73
2023-02-09T23:06:16.809Z,19.23
2023-02-09T23:08:43.968Z,20.00
2023-02-09T23:11:12.255Z,17.00
2023-02-09T23:13:39.551Z,20.85
2023-02-09T23:16:07.898Z,16.75
2023-02-09T23:18:35.471Z,12.20
2023-02-09T23:21:03.273Z,14.98
2023-02-09T23:23:30.926Z,17.52
2023-02-09T23:25:58.200Z,13.07
2023-02-09T23:28:25.665Z,13.45
2023-02-09T23:30:52.880Z,17.98
2023-02-09T23:33:20.139Z,9.23
2023-02-09T23:35:47.576Z,10.48
2023-02-09T23:38:14.923Z,12.95
2023-02-09T23:40:42.290Z,15.90
2023-02-09T23:43:09.510Z,17.98
2023-02-09T23:45:37.139Z,18.48
2023-02-09T23:48:04.488Z,12.40
2023-02-09T23:50:31.655Z,11.65
2023-02-09T23:52:58.967Z,14.43
2023-02-09T23:55:26.135Z,12.02
2023-02-09T23:57:53.307Z,9.45
